Time;durP1;ratioP1;P1;durP2;ratioP2;P2;SDS_P1;SDS_P2;PMS_P1;PMS_P2;Temp;Humidity;BMP_temperature;BMP_pressure;BME280_temperature;BME280_humidity;BME280_pressure;Samples;Min_cycle;Max_cycle;Signal;HPM_P1;HPM_P2
2022/01/04 00:02:15;;;;;;;76.55;49.00;;;;;;;-144.47;100.00;61586.06;5033333;28;20041;-79
2022/01/04 00:04:40;;;;;;;78.90;47.35;;;;;;;-144.47;100.00;61586.06;5032718;28;20040;-77
2022/01/04 00:07:06;;;;;;;72.18;45.95;;;;;;;-144.47;100.00;61586.06;5032214;28;20060;-78
2022/01/04 00:09:34;;;;;;;76.68;48.50;;;;;;;-144.47;100.00;61586.06;5032030;28;20103;-77
2022/01/04 00:13:21;;;;;;;83.40;48.92;;;;;;;-144.47;100.00;61586.06;5032667;28;20064;-77
2022/01/04 00:14:45;;;;;;;73.57;47.70;;;;;;;-144.47;100.00;61586.06;5028325;28;20049;-78
2022/01/04 00:17:10;;;;;;;76.07;48.00;;;;;;;-144.47;100.00;61586.06;5032175;28;20096;-78
2022/01/04 00:19:35;;;;;;;80.40;48.70;;;;;;;-144.47;100.00;61586.06;5032269;28;20036;-78
2022/01/04 00:22:03;;;;;;;78.65;46.95;;;;;;;-144.47;100.00;61586.06;5029830;28;20037;-78
2022/01/04 00:24:29;;;;;;;73.75;47.30;;;;;;;-144.47;100.00;61586.06;5029270;28;20102;-78
2022/01/04 00:26:54;;;;;;;78.10;47.67;;;;;;;-144.47;100.00;61586.06;5029536;28;20021;-77
2022/01/04 00:29:20;;;;;;;71.53;45.17;;;;;;;-144.47;100.00;61586.06;5031588;28;20037;-79
2022/01/04 00:31:45;;;;;;;72.80;43.75;;;;;;;-144.47;100.00;61586.06;5014293;28;20120;-78
2022/01/04 00:34:11;;;;;;;69.45;43.38;;;;;;;-144.47;100.00;61586.06;5032349;28;20461;-78
2022/01/04 00:36:38;;;;;;;69.82;43.97;;;;;;;-144.47;100.00;61586.06;5031847;28;20045;-77
2022/01/04 00:39:03;;;;;;;69.38;42.05;;;;;;;-144.47;100.00;61586.06;5014533;28;20037;-76
2022/01/04 00:41:29;;;;;;;71.25;43.53;;;;;;;-144.47;100.00;61586.06;5014151;28;20472;-77
2022/01/04 00:43:55;;;;;;;72.25;44.20;;;;;;;-144.47;100.00;61586.06;5013584;28;20166;-76
2022/01/04 00:46:20;;;;;;;67.15;41.80;;;;;;;-144.47;100.00;61586.06;5031642;28;20056;-78
2022/01/04 00:51:30;;;;;;;68.30;42.17;;;;;;;-144.47;100.00;61586.06;5030164;28;20398;-78
2022/01/04 00:53:56;;;;;;;77.40;43.00;;;;;;;-144.47;100.00;61586.06;5013555;28;20021;-77
2022/01/04 00:56:21;;;;;;;69.15;41.40;;;;;;;-144.47;100.00;61586.06;5031629;28;20116;-78
2022/01/04 00:58:47;;;;;;;68.93;42.30;;;;;;;-144.47;100.00;61586.06;5031666;28;20025;-77
2022/01/04 01:01:14;;;;;;;72.13;41.65;;;;;;;-144.47;100.00;61586.06;5027268;28;20452;-77
2022/01/04 01:03:39;;;;;;;75.15;42.13;;;;;;;-144.47;100.00;61586.06;5031276;28;20040;-79
2022/01/04 01:06:05;;;;;;;70.70;43.28;;;;;;;-144.47;100.00;61586.06;5030925;28;20550;-77
2022/01/04 01:08:30;;;;;;;77.13;45.80;;;;;;;-144.47;100.00;61586.06;5031136;28;20569;-77
2022/01/04 01:10:56;;;;;;;71.25;45.05;;;;;;;-144.47;100.00;61586.06;5031637;28;20109;-77
2022/01/04 01:13:22;;;;;;;75.07;44.60;;;;;;;-144.47;100.00;61586.06;5030696;28;20540;-76
2022/01/04 01:15:47;;;;;;;77.88;46.15;;;;;;;-144.47;100.00;61586.06;5030920;28;20041;-77
2022/01/04 01:18:15;;;;;;;77.57;44.35;;;;;;;-144.47;100.00;61586.06;5018299;28;20555;-78
2022/01/04 01:20:41;;;;;;;71.40;43.35;;;;;;;-144.47;100.00;61586.06;5004167;28;20069;-77
2022/01/04 01:23:07;;;;;;;70.60;43.00;;;;;;;-144.47;100.00;61586.06;5019018;28;20072;-77
2022/01/04 01:25:32;;;;;;;73.93;42.63;;;;;;;-144.47;100.00;61586.06;5020720;28;20430;-77
2022/01/04 01:27:58;;;;;;;72.38;42.88;;;;;;;-144.47;100.00;61586.06;5020565;28;20030;-78
2022/01/04 01:30:24;;;;;;;77.78;43.15;;;;;;;-144.47;100.00;61586.06;5019575;28;20418;-78
2022/01/04 01:32:51;;;;;;;76.68;43.63;;;;;;;-144.47;100.00;61586.06;5021815;28;20478;-77
2022/01/04 01:35:17;;;;;;;82.47;43.35;;;;;;;-144.47;100.00;61586.06;5026722;28;20871;-78
2022/01/04 01:37:42;;;;;;;79.68;42.78;;;;;;;-144.47;100.00;61586.06;5030014;28;20072;-77
2022/01/04 01:40:08;;;;;;;79.28;43.65;;;;;;;-144.47;100.00;61586.06;5011271;28;20046;-78
2022/01/04 01:42:34;;;;;;;79.88;42.97;;;;;;;-144.47;100.00;61586.06;5030228;28;20040;-78
2022/01/04 01:44:59;;;;;;;80.97;43.15;;;;;;;-144.47;100.00;61586.06;5030198;28;20041;-77
2022/01/04 01:47:25;;;;;;;80.47;43.72;;;;;;;-144.47;100.00;61586.06;5027636;28;20033;-77
2022/01/04 01:49:50;;;;;;;80.63;44.22;;;;;;;-144.47;100.00;61586.06;5011827;28;20596;-78
2022/01/04 01:52:17;;;;;;;83.72;43.03;;;;;;;-144.47;100.00;61586.06;5029291;28;20029;-78
2022/01/04 01:54:43;;;;;;;79.07;43.97;;;;;;;-144.47;100.00;61586.06;5027563;28;20087;-77
2022/01/04 01:57:08;;;;;;;85.13;44.65;;;;;;;-144.47;100.00;61586.06;5027107;28;20049;-77
2022/01/04 01:59:33;;;;;;;83.95;43.60;;;;;;;-144.47;100.00;61586.06;5027651;28;20044;-78
2022/01/04 02:01:59;;;;;;;84.07;43.10;;;;;;;-144.47;100.00;61586.06;5011370;28;20052;-78
2022/01/04 02:04:25;;;;;;;79.63;43.08;;;;;;;-144.47;100.00;61586.06;5029733;28;20044;-78
2022/01/04 02:06:50;;;;;;;75.95;41.80;;;;;;;-144.47;100.00;61586.06;5012207;28;20029;-77
2022/01/04 02:09:16;;;;;;;76.38;41.03;;;;;;;-144.47;100.00;61586.06;5029655;28;20025;-77
2022/01/04 02:11:43;;;;;;;75.93;42.67;;;;;;;-144.47;100.00;61586.06;5030157;28;20029;-77
2022/01/04 02:14:08;;;;;;;74.90;41.65;;;;;;;-144.47;100.00;61586.06;5029478;28;20053;-77
2022/01/04 02:16:34;;;;;;;81.32;41.20;;;;;;;-144.47;100.00;61586.06;5029662;28;20440;-77
2022/01/04 02:19:01;;;;;;;72.70;40.97;;;;;;;-144.47;100.00;61586.06;5029344;28;20037;-78
2022/01/04 02:21:26;;;;;;;75.15;40.80;;;;;;;-144.47;100.00;61586.06;5012285;28;20394;-76
2022/01/04 02:23:52;;;;;;;76.25;41.00;;;;;;;-144.47;100.00;61586.06;5030037;28;20501;-77
2022/01/04 02:26:18;;;;;;;71.05;40.30;;;;;;;-144.47;100.00;61586.06;5029678;28;20026;-78
2022/01/04 02:28:43;;;;;;;67.68;38.55;;;;;;;-144.47;100.00;61586.06;5027041;28;20446;-78
2022/01/04 02:31:09;;;;;;;74.93;40.17;;;;;;;-144.47;100.00;61586.06;5029736;28;20040;-78
2022/01/04 02:33:34;;;;;;;68.47;38.45;;;;;;;-144.47;100.00;61586.06;5030229;28;20037;-78
2022/01/04 02:36:00;;;;;;;71.78;40.20;;;;;;;-144.47;100.00;61586.06;5029095;28;20044;-77
2022/01/04 02:38:25;;;;;;;70.82;38.72;;;;;;;-144.47;100.00;61586.06;5029786;28;20045;-78
2022/01/04 02:40:51;;;;;;;69.43;38.88;;;;;;;-144.47;100.00;61586.06;5029722;28;20036;-77
2022/01/04 02:43:16;;;;;;;69.28;38.97;;;;;;;-144.47;100.00;61586.06;5029609;28;20049;-77
2022/01/04 02:45:42;;;;;;;72.40;39.20;;;;;;;-144.47;100.00;61586.06;5029403;28;20028;-76
2022/01/04 02:48:07;;;;;;;69.63;39.47;;;;;;;-144.47;100.00;61586.06;5029336;28;20037;-76
2022/01/04 02:50:33;;;;;;;76.30;41.17;;;;;;;-144.47;100.00;61586.06;5029562;28;20319;-77
2022/01/04 02:53:00;;;;;;;69.60;37.88;;;;;;;-144.47;100.00;61586.06;5015418;28;20124;-77
2022/01/04 02:55:25;;;;;;;72.65;39.78;;;;;;;-144.47;100.00;61586.06;5015618;28;20033;-77
2022/01/04 02:57:51;;;;;;;73.60;39.35;;;;;;;-144.47;100.00;61586.06;5033439;28;20430;-77
2022/01/04 03:00:18;;;;;;;70.07;39.03;;;;;;;-144.47;100.00;61586.06;5035539;28;20029;-77
2022/01/04 03:02:43;;;;;;;74.28;40.08;;;;;;;-144.47;100.00;61586.06;5032080;28;20080;-77
2022/01/04 03:05:10;;;;;;;69.82;38.72;;;;;;;-144.47;100.00;61586.06;5041166;28;20033;-77
2022/01/04 03:07:37;;;;;;;69.13;40.05;;;;;;;-144.47;100.00;61586.06;5042343;28;20121;-76
2022/01/04 03:10:05;;;;;;;69.95;39.80;;;;;;;-144.47;100.00;61586.06;5038898;28;20029;-78
2022/01/04 03:12:30;;;;;;;69.10;39.67;;;;;;;-144.47;100.00;61586.06;5033580;28;20087;-77
2022/01/04 03:14:56;;;;;;;77.97;42.03;;;;;;;-144.47;100.00;61586.06;5033127;28;20041;-78
2022/01/04 03:17:22;;;;;;;69.70;38.33;;;;;;;-144.47;100.00;61586.06;5015334;28;20037;-78
2022/01/04 03:19:48;;;;;;;65.55;37.90;;;;;;;-144.47;100.00;61586.06;5015369;28;20037;-77
2022/01/04 03:22:13;;;;;;;73.30;39.72;;;;;;;-144.47;100.00;61586.06;5024490;28;20116;-77
2022/01/04 03:24:39;;;;;;;62.63;37.28;;;;;;;-144.47;100.00;61586.06;5030313;28;20052;-77
2022/01/04 03:27:04;;;;;;;65.65;38.95;;;;;;;-144.47;100.00;61586.06;5032397;28;20064;-77
2022/01/04 03:29:32;;;;;;;65.63;38.05;;;;;;;-144.47;100.00;61586.06;5032911;28;20045;-76
2022/01/04 03:31:58;;;;;;;62.22;36.65;;;;;;;-144.47;100.00;61586.06;5032430;28;20037;-76
2022/01/04 03:34:25;;;;;;;72.30;40.10;;;;;;;-144.47;100.00;61586.06;5032045;28;20339;-76
2022/01/04 03:36:50;;;;;;;70.20;40.40;;;;;;;-144.47;100.00;61586.06;5032326;28;20037;-77
2022/01/04 03:39:16;;;;;;;71.85;40.33;;;;;;;-144.47;100.00;61586.06;5030491;28;20501;-77
2022/01/04 03:41:44;;;;;;;71.30;40.35;;;;;;;-144.47;100.00;61586.06;5032156;28;20105;-77
2022/01/04 03:44:19;;;;;;;67.57;39.00;;;;;;;-144.47;100.00;61586.06;5031591;28;20033;-77
2022/01/04 03:46:51;;;;;;;75.00;40.70;;;;;;;-144.47;100.00;61586.06;5028306;28;20025;-78
2022/01/04 03:49:16;;;;;;;76.00;41.90;;;;;;;-144.47;100.00;61586.06;5028052;28;20033;-77
2022/01/04 03:51:42;;;;;;;73.05;42.67;;;;;;;-144.47;100.00;61586.06;5032015;28;20059;-77
2022/01/04 03:54:08;;;;;;;79.32;43.55;;;;;;;-144.47;100.00;61586.06;5031309;28;20077;-77
2022/01/04 03:56:33;;;;;;;76.18;41.67;;;;;;;-144.47;100.00;61586.06;5031845;28;20030;-78
2022/01/04 03:58:59;;;;;;;75.80;41.58;;;;;;;-144.47;100.00;61586.06;5031506;28;20398;-77
2022/01/04 04:01:24;;;;;;;70.60;40.75;;;;;;;-144.47;100.00;61586.06;5031672;28;20033;-77
2022/01/04 04:03:50;;;;;;;69.10;39.40;;;;;;;-144.47;100.00;61586.06;5012930;28;20033;-77
2022/01/04 04:06:15;;;;;;;69.88;40.67;;;;;;;-144.47;100.00;61586.06;5031580;28;20460;-77
2022/01/04 04:08:42;;;;;;;72.18;42.13;;;;;;;-144.47;100.00;61586.06;5031643;28;20055;-78
2022/01/04 04:11:08;;;;;;;69.88;42.92;;;;;;;-144.47;100.00;61586.06;5031341;28;20127;-77
2022/01/04 04:13:33;;;;;;;65.32;39.10;;;;;;;-144.47;100.00;61586.06;5031392;28;20041;-79
2022/01/04 04:15:59;;;;;;;66.20;40.20;;;;;;;-144.47;100.00;61586.06;5031273;28;20063;-77
2022/01/04 04:18:24;;;;;;;64.65;38.25;;;;;;;-144.47;100.00;61586.06;5031143;28;20033;-77
2022/01/04 04:20:49;;;;;;;61.10;38.13;;;;;;;-144.47;100.00;61586.06;5031346;28;20045;-77
2022/01/04 04:23:15;;;;;;;65.95;39.33;;;;;;;-144.47;100.00;61586.06;5031477;28;20525;-78
2022/01/04 04:25:41;;;;;;;63.47;39.28;;;;;;;-144.47;100.00;61586.06;5031265;28;20095;-77
2022/01/04 04:28:07;;;;;;;67.55;39.20;;;;;;;-144.47;100.00;61586.06;5031048;28;20081;-77
2022/01/04 04:30:33;;;;;;;62.90;38.72;;;;;;;-144.47;100.00;61586.06;5031251;28;20044;-77
2022/01/04 04:32:59;;;;;;;68.57;40.55;;;;;;;-144.47;100.00;61586.06;5030043;28;20033;-75
2022/01/04 04:35:25;;;;;;;66.93;38.30;;;;;;;-144.47;100.00;61586.06;5029857;28;20036;-76
2022/01/04 04:37:51;;;;;;;55.38;36.42;;;;;;;-144.47;100.00;61586.06;5031114;28;20029;-77
2022/01/04 04:40:16;;;;;;;54.83;35.65;;;;;;;-144.47;100.00;61586.06;5013019;28;20812;-77
2022/01/04 04:42:42;;;;;;;58.92;36.53;;;;;;;-144.47;100.00;61586.06;5031256;28;20030;-76
2022/01/04 04:45:08;;;;;;;54.20;37.08;;;;;;;-144.47;100.00;61586.06;5030744;28;20478;-78
2022/01/04 04:47:34;;;;;;;59.40;36.67;;;;;;;-144.47;100.00;61586.06;5031010;28;20033;-79
2022/01/04 04:50:00;;;;;;;57.47;35.92;;;;;;;-144.47;100.00;61586.06;5030461;28;20044;-79
2022/01/04 04:52:25;;;;;;;58.30;37.00;;;;;;;-144.47;100.00;61586.06;5031181;28;20048;-79
2022/01/04 04:54:51;;;;;;;57.15;36.35;;;;;;;-144.47;100.00;61586.06;5030936;28;20496;-77
2022/01/04 04:57:16;;;;;;;57.67;36.63;;;;;;;-144.47;100.00;61586.06;5012783;28;20422;-78
2022/01/04 04:59:42;;;;;;;52.03;35.33;;;;;;;-144.47;100.00;61586.06;5031247;28;20073;-78
2022/01/04 05:02:08;;;;;;;53.10;34.08;;;;;;;-144.47;100.00;61586.06;5030347;28;20042;-77
2022/01/04 05:04:34;;;;;;;53.17;35.42;;;;;;;-144.47;100.00;61586.06;5032925;28;20033;-78
2022/01/04 05:07:01;;;;;;;48.60;32.45;;;;;;;-144.47;100.00;61586.06;5030348;28;20041;-79
2022/01/04 05:09:27;;;;;;;47.92;32.30;;;;;;;-144.47;100.00;61586.06;5030170;28;20117;-79
2022/01/04 05:11:53;;;;;;;51.53;34.03;;;;;;;-144.47;100.00;61586.06;5030436;28;20108;-77
2022/01/04 05:14:18;;;;;;;52.40;33.35;;;;;;;-144.47;100.00;61586.06;5029816;28;20046;-77
2022/01/04 05:16:44;;;;;;;48.65;33.95;;;;;;;-144.47;100.00;61586.06;5018321;28;20022;-76
2022/01/04 05:19:10;;;;;;;45.00;31.23;;;;;;;-144.47;100.00;61586.06;5020950;28;20418;-78
2022/01/04 05:21:35;;;;;;;45.80;31.45;;;;;;;-144.47;100.00;61586.06;5020294;28;20030;-77
2022/01/04 05:24:01;;;;;;;44.47;31.27;;;;;;;-144.47;100.00;61586.06;5019937;28;20121;-78
2022/01/04 05:26:26;;;;;;;46.35;31.08;;;;;;;-144.47;100.00;61586.06;5020866;28;20533;-78
2022/01/04 05:28:52;;;;;;;44.45;30.88;;;;;;;-144.47;100.00;61586.06;5018693;28;20030;-78
2022/01/04 05:31:18;;;;;;;47.92;32.10;;;;;;;-144.47;100.00;61586.06;5021799;28;20033;-77
2022/01/04 05:33:43;;;;;;;46.72;32.28;;;;;;;-144.47;100.00;61586.06;5019848;28;20065;-77
2022/01/04 05:36:08;;;;;;;44.53;31.63;;;;;;;-144.47;100.00;61586.06;5011410;28;20033;-78
2022/01/04 05:38:34;;;;;;;43.42;31.10;;;;;;;-144.47;100.00;61586.06;5011986;28;20101;-78
2022/01/04 05:41:00;;;;;;;43.58;31.40;;;;;;;-144.47;100.00;61586.06;5011561;28;20041;-77
2022/01/04 05:43:25;;;;;;;44.65;31.38;;;;;;;-144.47;100.00;61586.06;5028996;28;20128;-75
2022/01/04 05:45:51;;;;;;;46.22;32.05;;;;;;;-144.47;100.00;61586.06;5029082;28;20029;-77
2022/01/04 05:48:21;;;;;;;47.70;33.25;;;;;;;-144.47;100.00;61586.06;5028816;28;20037;-75
2022/01/04 05:50:49;;;;;;;48.03;32.80;;;;;;;-144.47;100.00;61586.06;5021219;28;20056;-77
2022/01/04 05:53:15;;;;;;;44.10;30.77;;;;;;;-144.47;100.00;61586.06;5029299;28;20029;-78
2022/01/04 05:55:40;;;;;;;45.95;31.70;;;;;;;-144.47;100.00;61586.06;5030053;28;20880;-78
2022/01/04 05:58:06;;;;;;;43.95;30.85;;;;;;;-144.47;100.00;61586.06;5028902;28;20072;-78
2022/01/04 06:00:32;;;;;;;45.20;31.30;;;;;;;-144.47;100.00;61586.06;5028876;28;20037;-77
2022/01/04 06:03:01;;;;;;;47.85;32.28;;;;;;;-144.47;100.00;61586.06;5028722;28;20041;-77
2022/01/04 06:05:27;;;;;;;44.28;30.98;;;;;;;-144.47;100.00;61586.06;5028554;28;20047;-77
2022/01/04 06:07:53;;;;;;;48.10;33.00;;;;;;;-144.47;100.00;61586.06;5028581;28;20061;-77
2022/01/04 06:10:18;;;;;;;45.03;32.28;;;;;;;-144.47;100.00;61586.06;5028708;28;20056;-77
2022/01/04 06:15:13;;;;;;;59.93;37.67;;;;;;;-144.47;100.00;61586.06;4946311;28;2144612;-78
2022/01/04 06:17:44;;;;;;;61.53;38.35;;;;;;;-144.47;100.00;61586.06;5018851;28;20276;-77
2022/01/04 06:20:16;;;;;;;58.22;36.75;;;;;;;-144.47;100.00;61586.06;5029041;28;20049;-79
2022/01/04 06:22:42;;;;;;;59.85;37.08;;;;;;;-144.47;100.00;61586.06;5030179;28;20034;-79
2022/01/04 06:25:11;;;;;;;63.55;38.30;;;;;;;-144.47;100.00;61586.06;5029882;28;20037;-79
2022/01/04 06:27:37;;;;;;;62.35;37.50;;;;;;;-144.47;100.00;61586.06;5033818;28;20083;-79
2022/01/04 06:30:13;;;;;;;60.13;37.20;;;;;;;-144.47;100.00;61586.06;5016445;28;20026;-79
2022/01/04 06:32:41;;;;;;;59.80;36.80;;;;;;;-144.47;100.00;61586.06;5035000;28;20462;-79
2022/01/04 06:35:07;;;;;;;58.78;37.38;;;;;;;-144.47;100.00;61586.06;5035626;28;20038;-78
2022/01/04 06:37:32;;;;;;;62.03;37.28;;;;;;;-144.47;100.00;61586.06;5035028;28;20547;-79
2022/01/04 06:39:58;;;;;;;65.18;38.28;;;;;;;-144.47;100.00;61586.06;5017070;28;20032;-79
2022/01/04 06:42:23;;;;;;;65.88;39.97;;;;;;;-144.47;100.00;61586.06;5017196;28;20394;-79
2022/01/04 06:44:49;;;;;;;58.70;38.03;;;;;;;-144.47;100.00;61586.06;5035475;28;20040;-80
2022/01/04 06:47:14;;;;;;;58.95;37.67;;;;;;;-144.47;100.00;61586.06;5034887;28;20948;-80
2022/01/04 06:49:40;;;;;;;55.92;37.65;;;;;;;-144.47;100.00;61586.06;5034386;28;20034;-80
2022/01/04 06:52:06;;;;;;;65.15;38.13;;;;;;;-144.47;100.00;61586.06;5034429;28;20033;-80
2022/01/04 06:54:31;;;;;;;63.03;38.13;;;;;;;-144.47;100.00;61586.06;5035165;28;20542;-79
2022/01/04 06:56:57;;;;;;;64.53;38.72;;;;;;;-144.47;100.00;61586.06;5017083;28;20044;-80
2022/01/04 06:59:22;;;;;;;59.58;37.42;;;;;;;-144.47;100.00;61586.06;5034864;28;20042;-79
2022/01/04 07:01:48;;;;;;;56.47;35.78;;;;;;;-144.47;100.00;61586.06;5017030;28;20117;-79
2022/01/04 07:04:14;;;;;;;59.88;36.15;;;;;;;-144.47;100.00;61586.06;5034527;28;20499;-79
2022/01/04 07:06:39;;;;;;;58.58;36.25;;;;;;;-144.47;100.00;61586.06;5036537;28;20038;-78
2022/01/04 07:09:07;;;;;;;58.78;37.42;;;;;;;-144.47;100.00;61586.06;5031630;28;20537;-80
2022/01/04 07:11:33;;;;;;;56.13;36.65;;;;;;;-144.47;100.00;61586.06;5053284;28;20089;-79
2022/01/04 07:13:59;;;;;;;57.67;36.53;;;;;;;-144.47;100.00;61586.06;5051108;28;20041;-78
2022/01/04 07:16:24;;;;;;;59.00;35.42;;;;;;;-144.47;100.00;61586.06;5055896;28;20038;-80
2022/01/04 07:18:50;;;;;;;58.22;36.45;;;;;;;-144.47;100.00;61586.06;5028289;28;20041;-80
2022/01/04 07:21:18;;;;;;;54.97;36.00;;;;;;;-144.47;100.00;61586.06;5039785;28;20029;-81
2022/01/04 07:23:45;;;;;;;54.30;34.97;;;;;;;-144.47;100.00;61586.06;5037030;28;20037;-80
2022/01/04 07:26:17;;;;;;;54.03;34.95;;;;;;;-144.47;100.00;61586.06;4332049;28;10000798;-78
2022/01/04 07:28:45;;;;;;;56.75;35.30;;;;;;;-144.47;100.00;61586.06;5022337;28;20034;-80
2022/01/04 07:31:12;;;;;;;49.15;32.58;;;;;;;-144.47;100.00;61586.06;5032188;28;20401;-81
2022/01/04 07:33:38;;;;;;;49.78;33.70;;;;;;;-144.47;100.00;61586.06;5033612;28;20029;-80
2022/01/04 07:36:06;;;;;;;50.80;34.75;;;;;;;-144.47;100.00;61586.06;5033956;28;20378;-81
2022/01/04 07:38:32;;;;;;;53.70;35.42;;;;;;;-144.47;100.00;61586.06;5032660;28;20041;-81
2022/01/04 07:40:58;;;;;;;50.40;33.72;;;;;;;-144.47;100.00;61586.06;5029862;28;20033;-82
2022/01/04 07:43:23;;;;;;;54.75;34.83;;;;;;;-144.47;100.00;61586.06;4661109;28;9999753;-83
2022/01/04 07:45:49;;;;;;;58.15;35.72;;;;;;;-144.47;100.00;61586.06;5025659;28;20037;-82
2022/01/04 07:48:14;;;;;;;49.60;33.45;;;;;;;-144.47;100.00;61586.06;5009757;28;20044;-81
2022/01/04 07:50:41;;;;;;;46.72;33.38;;;;;;;-144.47;100.00;61586.06;5024077;28;20041;-82
2022/01/04 07:53:07;;;;;;;45.95;32.08;;;;;;;-144.47;100.00;61586.06;5021452;28;20057;-81
2022/01/04 07:55:34;;;;;;;50.05;33.15;;;;;;;-144.47;100.00;61586.06;5004958;28;20479;-83
2022/01/04 07:58:00;;;;;;;51.45;33.10;;;;;;;-144.47;100.00;61586.06;5028048;28;20520;-81
2022/01/04 08:00:26;;;;;;;47.65;33.40;;;;;;;-144.47;100.00;61586.06;5029969;28;20662;-79
2022/01/04 08:02:52;;;;;;;47.80;33.28;;;;;;;-144.47;100.00;61586.06;5024750;28;20037;-79
2022/01/04 08:05:18;;;;;;;53.28;33.38;;;;;;;-144.47;100.00;61586.06;5015352;28;20029;-82
2022/01/04 08:07:44;;;;;;;48.60;33.70;;;;;;;-144.47;100.00;61586.06;5037113;28;20038;-81
2022/01/04 08:10:11;;;;;;;46.55;32.40;;;;;;;-144.47;100.00;61586.06;5037955;28;20049;-82
2022/01/04 08:12:38;;;;;;;45.95;32.63;;;;;;;-144.47;100.00;61586.06;5038772;28;20105;-80
2022/01/04 08:15:05;;;;;;;44.92;32.10;;;;;;;-144.47;100.00;61586.06;5006519;28;20049;-79
2022/01/04 08:17:31;;;;;;;44.95;32.15;;;;;;;-144.47;100.00;61586.06;5025292;28;20041;-76
2022/01/04 08:19:58;;;;;;;42.72;31.23;;;;;;;-144.47;100.00;61586.06;5027720;28;20047;-76
2022/01/04 08:22:23;;;;;;;40.70;31.40;;;;;;;-144.47;100.00;61586.06;5020737;28;20292;-79
2022/01/04 08:24:49;;;;;;;42.03;30.73;;;;;;;-144.47;100.00;61586.06;5004122;28;20039;-77
2022/01/04 08:27:14;;;;;;;40.50;31.25;;;;;;;-144.47;100.00;61586.06;5016755;28;20042;-79
2022/01/04 08:29:40;;;;;;;46.78;33.40;;;;;;;-144.47;100.00;61586.06;5019513;28;20026;-77
2022/01/04 08:32:06;;;;;;;47.75;34.30;;;;;;;-144.47;100.00;61586.06;5021407;28;20395;-77
2022/01/04 08:34:33;;;;;;;45.22;33.28;;;;;;;-144.47;100.00;61586.06;5021809;28;20152;-79
2022/01/04 08:37:00;;;;;;;48.63;34.60;;;;;;;-144.47;100.00;61586.06;5025077;28;20026;-78
2022/01/04 08:39:29;;;;;;;47.55;34.20;;;;;;;-144.47;100.00;61586.06;5004765;28;20079;-77
2022/01/04 08:41:55;;;;;;;49.17;35.95;;;;;;;-144.47;100.00;61586.06;5020671;28;20139;-79
2022/01/04 08:44:23;;;;;;;47.90;35.95;;;;;;;-144.47;100.00;61586.06;5021548;28;20034;-78
2022/01/04 08:46:52;;;;;;;51.67;37.10;;;;;;;-144.47;100.00;61586.06;5029356;28;20044;-79
2022/01/04 08:49:18;;;;;;;49.13;37.75;;;;;;;-144.47;100.00;61586.06;5002980;28;20060;-79
2022/01/04 08:51:43;;;;;;;52.85;38.08;;;;;;;-144.47;100.00;61586.06;5023450;28;20457;-78
2022/01/04 08:54:09;;;;;;;57.05;39.85;;;;;;;-144.47;100.00;61586.06;5019917;28;20123;-80
2022/01/04 08:56:35;;;;;;;57.47;40.60;;;;;;;-144.47;100.00;61586.06;5021810;28;20080;-78
2022/01/04 08:59:03;;;;;;;53.30;38.80;;;;;;;-144.47;100.00;61586.06;5020823;28;20038;-79
2022/01/04 09:01:29;;;;;;;53.30;37.28;;;;;;;-144.47;100.00;61586.06;5003855;28;20161;-79
2022/01/04 09:03:55;;;;;;;58.33;40.13;;;;;;;-144.47;100.00;61586.06;5018771;28;20547;-79
2022/01/04 09:06:22;;;;;;;56.42;40.10;;;;;;;-144.47;100.00;61586.06;5027768;28;20084;-78
2022/01/04 09:08:50;;;;;;;52.00;37.88;;;;;;;-144.47;100.00;61586.06;5029121;28;20025;-78
2022/01/04 09:11:17;;;;;;;51.72;36.92;;;;;;;-144.47;100.00;61586.06;5028009;28;20029;-78
2022/01/04 09:13:44;;;;;;;55.13;38.55;;;;;;;-144.47;100.00;61586.06;5029814;28;20504;-78
2022/01/04 09:18:54;;;;;;;52.50;38.10;;;;;;;-144.47;100.00;61586.06;5028873;28;20076;-78
2022/01/04 09:21:24;;;;;;;51.17;38.15;;;;;;;-144.47;100.00;61586.06;5013702;28;20045;-79
2022/01/04 09:23:50;;;;;;;53.90;38.30;;;;;;;-144.47;100.00;61586.06;5031424;28;20501;-78
2022/01/04 09:26:17;;;;;;;54.47;38.78;;;;;;;-144.47;100.00;61586.06;5019727;28;20372;-79
2022/01/04 09:28:44;;;;;;;55.25;40.33;;;;;;;-144.47;100.00;61586.06;5023522;28;20058;-80
2022/01/04 09:31:10;;;;;;;54.90;39.10;;;;;;;-144.47;100.00;61586.06;5017019;28;20037;-79
2022/01/04 09:33:36;;;;;;;54.70;38.63;;;;;;;-144.47;100.00;61586.06;5031302;28;20049;-79
2022/01/04 09:36:03;;;;;;;52.47;39.25;;;;;;;-144.47;100.00;61586.06;5030830;28;20386;-78
2022/01/04 09:38:29;;;;;;;55.35;38.95;;;;;;;-144.47;100.00;61586.06;5023944;28;20030;-77
2022/01/04 09:40:55;;;;;;;51.70;38.15;;;;;;;-144.47;100.00;61586.06;5019963;28;20116;-81
2022/01/04 09:43:21;;;;;;;55.13;38.67;;;;;;;-144.47;100.00;61586.06;5025740;28;20124;-79
2022/01/04 09:45:50;;;;;;;52.83;38.35;;;;;;;-144.47;100.00;61586.06;5024634;28;20037;-79
2022/01/04 09:48:15;;;;;;;51.78;37.97;;;;;;;-144.47;100.00;61586.06;5031301;28;20033;-79
2022/01/04 09:50:42;;;;;;;55.72;39.67;;;;;;;-144.47;100.00;61586.06;5031220;28;20021;-80
2022/01/04 09:53:19;;;;;;;56.88;40.58;;;;;;;-144.47;100.00;61586.06;5029568;28;20064;-78
2022/01/04 09:55:47;;;;;;;58.50;41.05;;;;;;;-144.47;100.00;61586.06;5019028;28;20435;-79
2022/01/04 09:58:12;;;;;;;54.95;39.72;;;;;;;-144.47;100.00;61586.06;5021817;28;20037;-79
2022/01/04 10:00:38;;;;;;;57.25;39.63;;;;;;;-144.47;100.00;61586.06;5019238;28;20100;-80
2022/01/04 10:03:19;;;;;;;56.38;41.35;;;;;;;-144.47;100.00;61586.06;5021432;28;20041;-80
2022/01/04 10:05:45;;;;;;;56.03;40.08;;;;;;;-144.47;100.00;61586.06;5019395;28;20141;-83
2022/01/04 10:08:12;;;;;;;56.20;39.90;;;;;;;-144.47;100.00;61586.06;5019490;28;20025;-79
2022/01/04 10:10:39;;;;;;;52.03;38.70;;;;;;;-144.47;100.00;61586.06;5023258;28;20041;-79
2022/01/04 10:13:16;;;;;;;53.40;39.55;;;;;;;-144.47;100.00;61586.06;5022433;28;20396;-77
2022/01/04 10:15:46;;;;;;;55.05;38.22;;;;;;;-144.47;100.00;61586.06;5022304;28;20048;-74
2022/01/04 10:18:14;;;;;;;49.28;35.90;;;;;;;-144.47;100.00;61586.06;5021575;28;20374;-76
2022/01/04 10:20:47;;;;;;;55.40;37.92;;;;;;;-144.47;100.00;61586.06;5019524;28;20046;-78
2022/01/04 10:23:22;;;;;;;52.17;37.72;;;;;;;-144.47;100.00;61586.06;5021586;28;20596;-78
2022/01/04 10:26:01;;;;;;;48.70;36.63;;;;;;;-144.47;100.00;61586.06;5022214;28;20068;-79
2022/01/04 10:28:33;;;;;;;52.95;38.17;;;;;;;-144.47;100.00;61586.06;5003246;28;20030;-80
2022/01/04 10:31:02;;;;;;;51.90;38.15;;;;;;;-144.47;100.00;61586.06;5021606;28;20390;-80
2022/01/04 10:33:28;;;;;;;52.42;38.17;;;;;;;-144.47;100.00;61586.06;5020329;28;20083;-76
2022/01/04 10:35:56;;;;;;;48.75;34.97;;;;;;;-144.47;100.00;61586.06;5021178;28;20037;-77
2022/01/04 10:38:26;;;;;;;46.67;34.38;;;;;;;-144.47;100.00;61586.06;5019424;28;20026;-76
2022/01/04 10:41:04;;;;;;;43.90;32.38;;;;;;;-144.47;100.00;61586.06;5018681;28;20038;-75
2022/01/04 10:43:50;;;;;;;49.90;35.40;;;;;;;-144.47;100.00;61586.06;5025728;28;20040;-78
2022/01/04 10:46:30;;;;;;;49.70;36.10;;;;;;;-144.47;100.00;61586.06;5026180;28;20091;-78
2022/01/04 10:48:55;;;;;;;52.53;36.67;;;;;;;-144.47;100.00;61586.06;5018879;28;20030;-80
2022/01/04 10:51:22;;;;;;;49.95;36.72;;;;;;;-144.47;100.00;61586.06;5022314;28;20029;-79
2022/01/04 10:53:50;;;;;;;54.63;36.67;;;;;;;-144.47;100.00;61586.06;5023107;28;20034;-76
2022/01/04 10:56:31;;;;;;;52.83;38.03;;;;;;;-144.47;100.00;61586.06;5025249;28;20064;-79
2022/01/04 10:58:58;;;;;;;56.40;37.58;;;;;;;-144.47;100.00;61586.06;5022571;28;20030;-78
2022/01/04 11:01:59;;;;;;;52.22;37.85;;;;;;;-144.47;100.00;61586.06;5023384;28;20029;-79